Robinson, North Dakota
Current Conditions -  °F | °C
As of 3:35 PM on Monday 24 Nov 2014 (Local Time) from K46D Reporting Station
Clear Clear  
Wind Chill: -17°   Ceiling: Unl
Heat Index: -8°   Visibility: 10mi
Dew Point: -16°   Wind: 18mph
Humidity: 53%   Direction: 320°NW
Pressure: 29.93"   Gusts: 24mph
Location:  47.14°N, 99.78°W
Report Text: K46D 242135Z AUTO 32016G21KT 10SM CLR M08/M16 A2993 RMK AO2
Loading
Personal Weather Stations






























Interactive Weather Map New forecast layout! Learn more

10-Day Weather Forecast

Advertisements
Track Severe Weather on mobile